Time;durP1;ratioP1;P1;durP2;ratioP2;P2;SDS_P1;SDS_P2;PMS_P1;PMS_P2;Temp;Humidity;BMP_temperature;BMP_pressure;BME280_temperature;BME280_humidity;BME280_pressure;Samples;Min_cycle;Max_cycle;Signal;HPM_P1;HPM_P2
2022/08/26 00:00:43;;;;;;;3.92;2.88;;;25.30;7.40;;;;;;5055799;28;20033;-87
2022/08/26 00:03:09;;;;;;;4.03;3.03;;;25.50;1.80;;;;;;5037679;28;20421;-86
2022/08/26 00:05:35;;;;;;;5.47;3.20;;;25.40;2.00;;;;;;5055667;28;20060;-87
2022/08/26 00:08:01;;;;;;;3.38;2.90;;;25.40;5.20;;;;;;5055218;28;20370;-87
2022/08/26 00:10:27;;;;;;;2.65;2.45;;;25.50;2.70;;;;;;5055609;28;20093;-87
2022/08/26 00:12:53;;;;;;;4.63;3.08;;;25.40;2.20;;;;;;5055301;28;20455;-87
2022/08/26 00:15:20;;;;;;;3.28;2.95;;;25.30;6.20;;;;;;5053228;28;20071;-87
2022/08/26 00:17:47;;;;;;;2.90;2.70;;;25.20;6.70;;;;;;5055419;28;20036;-87
2022/08/26 00:20:16;;;;;;;5.10;2.92;;;25.30;13.20;;;;;;5055275;28;20078;-86
2022/08/26 00:22:42;;;;;;;3.10;2.50;;;25.30;7.00;;;;;;5054956;28;20044;-87
2022/08/26 00:25:08;;;;;;;2.85;2.60;;;25.30;4.90;;;;;;5055281;28;20025;-87
2022/08/26 00:27:35;;;;;;;4.38;2.80;;;25.40;6.60;;;;;;5055001;28;20138;-86
2022/08/26 00:30:04;;;;;;;3.30;3.00;;;25.30;8.20;;;;;;5055058;28;20025;-87
2022/08/26 00:32:30;;;;;;;4.10;3.10;;;25.30;6.90;;;;;;5054971;28;20122;-86
2022/08/26 00:34:55;;;;;;;3.17;2.88;;;25.30;8.50;;;;;;5054981;28;20068;-87
2022/08/26 00:37:21;;;;;;;4.72;3.03;;;25.30;5.10;;;;;;5054752;28;20393;-87
2022/08/26 00:39:47;;;;;;;6.45;2.70;;;25.30;1.00;;;;;;5054866;28;20032;-86
2022/08/26 00:42:13;;;;;;;3.42;2.72;;;25.30;6.20;;;;;;5055084;28;20033;-87
2022/08/26 00:44:38;;;;;;;3.33;2.85;;;25.30;4.70;;;;;;5054752;28;20028;-87
2022/08/26 00:47:08;;;;;;;3.97;3.00;;;25.40;4.90;;;;;;5054809;28;20021;-87
2022/08/26 00:49:38;;;;;;;4.63;3.15;;;25.40;8.20;;;;;;5054901;28;20067;-87
2022/08/26 00:52:07;;;;;;;4.32;2.75;;;25.50;11.60;;;;;;5054755;28;20422;-87
2022/08/26 00:54:36;;;;;;;4.85;3.40;;;25.40;7.40;;;;;;5053694;28;20029;-87
2022/08/26 00:57:08;;;;;;;3.75;2.70;;;25.50;9.20;;;;;;5054595;28;20111;-87
2022/08/26 00:59:34;;;;;;;3.20;2.90;;;25.50;8.20;;;;;;5054508;28;20017;-87
2022/08/26 01:02:00;;;;;;;3.88;3.08;;;25.40;7.70;;;;;;5054792;28;20024;-86
2022/08/26 01:04:27;;;;;;;3.05;2.85;;;25.30;7.00;;;;;;5054214;28;20099;-87
2022/08/26 01:06:53;;;;;;;3.88;2.90;;;25.20;17.40;;;;;;5054464;28;20541;-86
2022/08/26 01:09:21;;;;;;;4.25;2.85;;;25.20;3.90;;;;;;5054388;28;20057;-86
2022/08/26 01:11:49;;;;;;;4.45;3.10;;;25.30;6.10;;;;;;5054409;28;20675;-87
2022/08/26 01:14:17;;;;;;;4.00;3.28;;;25.20;6.90;;;;;;5051803;28;20048;-87
2022/08/26 01:16:43;;;;;;;4.07;3.25;;;25.30;9.20;;;;;;5054282;28;20025;-87
2022/08/26 01:19:18;;;;;;;3.60;3.30;;;25.30;3.30;;;;;;5053847;28;20475;-87
2022/08/26 01:22:08;;;;;;;4.22;2.88;;;25.10;13.70;;;;;;5054219;28;20021;-86
2022/08/26 01:24:36;;;;;;;3.88;3.30;;;25.30;7.30;;;;;;5054065;28;20036;-87
2022/08/26 01:27:06;;;;;;;3.53;2.85;;;25.20;4.00;;;;;;5053893;28;20381;-86
2022/08/26 01:29:33;;;;;;;5.53;3.38;;;25.20;5.10;;;;;;5053863;28;20061;-86
2022/08/26 01:31:58;;;;;;;3.47;3.03;;;25.10;6.70;;;;;;5054075;28;20017;-87
2022/08/26 01:34:36;;;;;;;5.63;2.85;;;25.10;13.60;;;;;;5053618;28;20132;-87
2022/08/26 01:37:09;;;;;;;4.88;2.90;;;25.10;10.40;;;;;;5053826;28;20051;-87
2022/08/26 01:39:35;;;;;;;4.53;3.42;;;25.10;4.80;;;;;;5053860;28;20047;-87
2022/08/26 01:42:04;;;;;;;4.82;3.25;;;25.10;6.30;;;;;;5053891;28;20477;-87
2022/08/26 01:44:35;;;;;;;7.38;3.40;;;25.10;7.80;;;;;;5053661;28;20486;-87
2022/08/26 01:47:02;;;;;;;5.65;3.22;;;25.20;9.70;;;;;;5053736;28;20025;-87
2022/08/26 01:49:27;;;;;;;9.88;3.30;;;25.10;10.50;;;;;;5053331;28;20036;-87
2022/08/26 01:51:55;;;;;;;4.90;3.10;;;25.00;2.40;;;;;;5053798;28;20025;-87
2022/08/26 01:54:22;;;;;;;4.00;3.25;;;24.90;6.80;;;;;;5053477;28;20505;-87
2022/08/26 01:56:49;;;;;;;4.82;3.42;;;24.90;5.50;;;;;;5053509;28;20081;-87
2022/08/26 01:59:17;;;;;;;3.65;3.30;;;24.80;6.50;;;;;;5035558;28;20053;-87
2022/08/26 02:01:43;;;;;;;4.38;3.50;;;24.80;9.40;;;;;;5053366;28;20028;-87
2022/08/26 02:04:18;;;;;;;4.85;3.30;;;24.70;3.30;;;;;;5053111;28;20025;-88
2022/08/26 02:06:45;;;;;;;3.72;3.42;;;24.70;11.10;;;;;;5053049;28;20021;-87
2022/08/26 02:09:12;;;;;;;6.35;3.42;;;24.70;8.50;;;;;;5053129;28;20492;-87
2022/08/26 02:11:38;;;;;;;7.88;3.35;;;24.60;9.60;;;;;;5053183;28;20028;-87
2022/08/26 02:14:21;;;;;;;4.55;3.40;;;24.70;1.00;;;;;;5050769;28;20398;-87
2022/08/26 02:16:50;;;;;;;4.25;3.10;;;24.60;5.80;;;;;;5052817;28;20025;-87
2022/08/26 02:19:19;;;;;;;5.47;3.40;;;24.60;12.80;;;;;;5053150;28;20025;-87
2022/08/26 02:21:47;;;;;;;6.47;3.15;;;24.60;7.60;;;;;;5053070;28;20096;-87
2022/08/26 02:24:19;;;;;;;4.15;3.13;;;24.50;8.80;;;;;;5053105;28;20032;-87
2022/08/26 02:26:46;;;;;;;4.57;3.53;;;24.50;9.70;;;;;;5053062;28;20075;-87
2022/08/26 02:29:27;;;;;;;8.10;3.30;;;24.50;10.50;;;;;;5052770;28;20420;-87
2022/08/26 02:31:54;;;;;;;4.60;3.28;;;24.50;17.70;;;;;;5052627;28;20025;-87
2022/08/26 02:34:24;;;;;;;4.47;3.50;;;24.50;6.00;;;;;;5052890;28;20045;-87
2022/08/26 02:36:50;;;;;;;3.20;2.90;;;24.40;7.80;;;;;;5052966;28;20017;-87
2022/08/26 02:39:16;;;;;;;9.05;4.15;;;24.40;13.00;;;;;;5052724;28;20478;-87
2022/08/26 02:41:43;;;;;;;6.63;4.35;;;24.00;13.50;;;;;;5052836;28;20424;-87
2022/08/26 02:44:09;;;;;;;5.20;4.38;;;23.60;10.60;;;;;;5052685;28;20423;-87
2022/08/26 02:46:35;;;;;;;6.55;4.20;;;23.30;7.60;;;;;;5052372;28;20061;-87
2022/08/26 02:49:00;;;;;;;6.57;4.07;;;23.30;10.50;;;;;;5052639;28;20394;-87
2022/08/26 02:51:27;;;;;;;5.85;3.92;;;23.30;9.80;;;;;;5052688;28;20036;-87
2022/08/26 02:53:52;;;;;;;6.68;4.05;;;23.40;9.40;;;;;;5052563;28;20052;-87
2022/08/26 02:56:18;;;;;;;4.70;4.00;;;23.50;9.60;;;;;;5052445;28;20021;-86
2022/08/26 02:58:44;;;;;;;6.65;3.90;;;23.50;7.40;;;;;;5052381;28;20032;-87
2022/08/26 03:01:22;;;;;;;6.68;4.45;;;23.50;11.70;;;;;;5052166;28;20025;-87
2022/08/26 03:03:48;;;;;;;7.95;4.10;;;23.60;14.90;;;;;;5052376;28;20029;-87
2022/08/26 03:06:14;;;;;;;5.55;3.90;;;23.60;10.50;;;;;;5052725;28;20032;-87
2022/08/26 03:08:40;;;;;;;7.45;3.90;;;23.50;10.20;;;;;;5052148;28;20028;-87
2022/08/26 03:11:05;;;;;;;5.30;3.58;;;23.30;10.50;;;;;;5052416;28;20025;-87
2022/08/26 03:13:31;;;;;;;4.30;3.90;;;23.30;21.20;;;;;;5049944;28;20032;-87
2022/08/26 03:15:59;;;;;;;4.90;3.78;;;23.30;15.00;;;;;;5052063;28;20051;-87
2022/08/26 03:18:25;;;;;;;4.93;3.80;;;23.20;16.80;;;;;;5053901;28;20031;-87
2022/08/26 03:20:50;;;;;;;4.70;3.65;;;23.20;14.00;;;;;;5056351;28;20477;-87
2022/08/26 03:23:16;;;;;;;12.07;3.88;;;23.30;17.20;;;;;;5056545;28;20017;-87
2022/08/26 03:25:41;;;;;;;4.50;3.90;;;23.30;11.40;;;;;;5056371;28;20036;-87
2022/08/26 03:28:07;;;;;;;5.43;4.00;;;23.40;11.90;;;;;;5056112;28;20040;-87
2022/08/26 03:30:39;;;;;;;6.40;3.90;;;23.40;11.20;;;;;;5055907;28;20037;-87
2022/08/26 03:33:07;;;;;;;8.70;3.78;;;23.20;17.50;;;;;;5056064;28;20037;-86
2022/08/26 03:35:33;;;;;;;6.03;3.85;;;23.20;30.40;;;;;;5056136;28;20029;-87
2022/08/26 03:38:00;;;;;;;4.88;3.90;;;23.20;20.40;;;;;;5056219;28;20478;-87
2022/08/26 03:40:26;;;;;;;5.50;4.30;;;23.20;20.50;;;;;;5056137;28;20081;-86
2022/08/26 03:42:52;;;;;;;6.13;4.30;;;23.20;29.90;;;;;;5056047;28;20082;-87
2022/08/26 03:45:19;;;;;;;7.32;3.90;;;23.20;24.80;;;;;;5055629;28;20028;-87
2022/08/26 03:47:46;;;;;;;7.07;4.07;;;23.20;21.40;;;;;;5055890;28;20044;-87
2022/08/26 03:50:15;;;;;;;5.47;4.10;;;23.20;25.70;;;;;;5055957;28;20019;-87
2022/08/26 03:52:41;;;;;;;4.18;3.65;;;23.20;24.30;;;;;;5055898;28;20025;-87
2022/08/26 03:55:08;;;;;;;6.90;4.43;;;23.20;29.00;;;;;;5055862;28;20033;-87
2022/08/26 03:57:33;;;;;;;8.30;3.75;;;23.20;22.60;;;;;;5055682;28;20070;-87
2022/08/26 03:59:59;;;;;;;4.63;3.67;;;23.20;18.90;;;;;;5055475;28;20029;-88
2022/08/26 04:02:26;;;;;;;5.53;3.90;;;23.30;17.70;;;;;;5055747;28;20080;-87
2022/08/26 04:04:51;;;;;;;4.40;3.58;;;23.30;17.80;;;;;;5055586;28;20560;-87
2022/08/26 04:07:17;;;;;;;3.80;3.33;;;23.40;20.70;;;;;;5055632;28;20171;-87
2022/08/26 04:09:43;;;;;;;6.30;3.10;;;23.40;18.20;;;;;;5055534;28;20029;-87
2022/08/26 04:12:09;;;;;;;3.92;3.35;;;23.50;17.40;;;;;;5055475;28;20074;-87
2022/08/26 04:14:36;;;;;;;5.50;3.25;;;23.50;17.00;;;;;;5052662;28;20052;-87
2022/08/26 04:17:03;;;;;;;3.88;3.20;;;23.50;17.50;;;;;;5055418;28;20051;-87
2022/08/26 04:19:30;;;;;;;5.75;3.40;;;23.50;24.60;;;;;;5055464;28;20032;-88
2022/08/26 04:21:56;;;;;;;3.92;3.13;;;23.40;23.60;;;;;;5037498;28;20029;-87
2022/08/26 04:24:24;;;;;;;5.75;3.10;;;23.40;22.20;;;;;;5055256;28;20029;-87
2022/08/26 04:26:50;;;;;;;5.18;3.42;;;23.50;25.60;;;;;;5055214;28;20029;-87
2022/08/26 04:29:18;;;;;;;3.53;2.95;;;23.50;22.10;;;;;;5054401;28;20081;-87
2022/08/26 04:31:45;;;;;;;5.93;3.30;;;23.30;24.30;;;;;;5055219;28;20358;-87
2022/08/26 04:34:11;;;;;;;5.68;3.35;;;23.30;20.70;;;;;;5054958;28;20045;-87
2022/08/26 04:36:37;;;;;;;3.25;3.03;;;23.30;22.50;;;;;;5055150;28;20109;-87
2022/08/26 04:39:04;;;;;;;6.75;3.30;;;23.30;10.00;;;;;;5054958;28;20040;-87
2022/08/26 04:41:30;;;;;;;6.05;3.30;;;23.40;13.60;;;;;;5055002;28;20021;-87
2022/08/26 04:43:56;;;;;;;3.42;3.13;;;23.40;16.10;;;;;;5054649;28;20037;-87
2022/08/26 04:46:23;;;;;;;5.03;3.20;;;23.40;15.80;;;;;;5054899;28;20036;-87
2022/08/26 04:48:51;;;;;;;5.38;3.17;;;23.40;26.50;;;;;;5054664;28;20486;-87
2022/08/26 04:51:17;;;;;;;5.60;3.42;;;23.50;28.80;;;;;;5054753;28;20052;-87
2022/08/26 04:53:44;;;;;;;5.40;3.28;;;23.40;39.10;;;;;;5054604;28;20033;-87
2022/08/26 04:56:09;;;;;;;5.28;3.05;;;23.40;39.80;;;;;;5054393;28;20029;-87
2022/08/26 04:58:35;;;;;;;4.50;3.20;;;23.40;24.50;;;;;;5054681;28;20028;-87
2022/08/26 05:01:01;;;;;;;4.30;3.50;;;23.40;27.80;;;;;;5054491;28;20433;-87
2022/08/26 05:03:27;;;;;;;3.95;3.40;;;23.30;44.30;;;;;;5054696;28;20029;-87
2022/08/26 05:05:53;;;;;;;5.88;3.33;;;23.40;43.30;;;;;;5054539;28;20035;-87
2022/08/26 05:08:21;;;;;;;4.30;3.53;;;23.40;22.20;;;;;;5054320;28;20083;-89
2022/08/26 05:10:55;;;;;;;4.65;3.63;;;23.40;26.10;;;;;;5054110;28;20017;-87
2022/08/26 05:13:23;;;;;;;6.43;3.13;;;23.40;25.40;;;;;;5053372;28;20083;-87
2022/08/26 05:15:50;;;;;;;5.43;3.28;;;23.40;25.30;;;;;;5053534;28;20025;-87
2022/08/26 05:18:17;;;;;;;4.43;3.63;;;23.40;23.70;;;;;;5054227;28;20104;-87
2022/08/26 05:20:45;;;;;;;4.97;3.50;;;23.50;26.40;;;;;;5054274;28;20521;-87
2022/08/26 05:23:12;;;;;;;4.40;3.30;;;23.50;23.10;;;;;;5054299;28;20032;-87
2022/08/26 05:25:40;;;;;;;4.15;3.10;;;23.50;29.10;;;;;;5053757;28;20029;-87
2022/08/26 05:28:07;;;;;;;3.35;2.88;;;23.50;31.20;;;;;;5053994;28;20049;-87
2022/08/26 05:30:33;;;;;;;3.15;2.85;;;23.50;25.40;;;;;;5053955;28;20029;-87
2022/08/26 05:32:58;;;;;;;5.57;3.13;;;23.60;25.00;;;;;;5054028;28;20032;-87
2022/08/26 05:35:28;;;;;;;3.42;3.10;;;23.50;20.50;;;;;;5053958;28;20055;-87
2022/08/26 05:37:53;;;;;;;4.57;3.10;;;23.60;27.60;;;;;;5053888;28;20429;-87
2022/08/26 05:40:19;;;;;;;5.13;3.28;;;23.50;20.50;;;;;;5053131;28;20025;-88
2022/08/26 05:42:46;;;;;;;4.07;3.10;;;23.50;28.30;;;;;;5053550;28;20025;-87
2022/08/26 05:45:12;;;;;;;4.20;3.20;;;23.50;27.80;;;;;;5053682;28;20098;-87
2022/08/26 05:47:37;;;;;;;4.05;2.85;;;23.60;28.40;;;;;;5052613;28;20494;-87
2022/08/26 05:50:04;;;;;;;8.38;3.35;;;23.60;40.00;;;;;;5046518;28;20032;-87
2022/08/26 05:52:31;;;;;;;3.20;2.90;;;23.60;41.50;;;;;;5053698;28;20449;-87
2022/08/26 05:54:57;;;;;;;4.70;3.17;;;23.60;44.00;;;;;;5053146;28;20052;-87
2022/08/26 05:57:23;;;;;;;4.45;2.90;;;23.50;38.40;;;;;;5053291;28;20028;-87
2022/08/26 05:59:48;;;;;;;3.90;2.75;;;23.50;34.00;;;;;;5053411;28;20033;-87
2022/08/26 06:02:14;;;;;;;5.93;3.25;;;23.60;19.20;;;;;;5053310;28;20049;-86
2022/08/26 06:04:40;;;;;;;4.72;2.92;;;23.60;24.20;;;;;;5053411;28;20021;-87
2022/08/26 06:07:05;;;;;;;3.85;3.03;;;23.60;29.80;;;;;;5053279;28;20057;-87
2022/08/26 06:09:31;;;;;;;7.10;2.92;;;23.60;29.60;;;;;;5052926;28;20032;-87
2022/08/26 06:11:57;;;;;;;5.78;3.03;;;23.60;26.30;;;;;;5053289;28;20021;-87
2022/08/26 06:14:24;;;;;;;6.00;3.47;;;23.70;29.90;;;;;;5050754;28;20387;-87
2022/08/26 06:16:50;;;;;;;7.05;3.30;;;23.70;25.60;;;;;;5053076;28;20478;-87
2022/08/26 06:19:16;;;;;;;5.88;3.55;;;23.70;26.70;;;;;;5053117;28;20029;-87
2022/08/26 06:21:46;;;;;;;7.05;3.30;;;23.80;36.70;;;;;;5052986;28;20048;-87
2022/08/26 06:27:04;;;;;;;6.07;3.00;;;23.90;34.50;;;;;;5053008;28;20148;-87
2022/08/26 06:29:32;;;;;;;4.07;3.20;;;23.90;37.70;;;;;;5032933;28;20040;-87
2022/08/26 06:31:59;;;;;;;6.13;3.35;;;24.00;25.30;;;;;;5033037;28;20183;-87
2022/08/26 06:34:29;;;;;;;5.55;3.30;;;24.00;28.90;;;;;;5032875;28;20056;-87
2022/08/26 06:37:01;;;;;;;7.55;3.75;;;24.10;24.90;;;;;;5032958;28;20022;-88
2022/08/26 06:39:27;;;;;;;4.68;3.60;;;24.10;32.10;;;;;;5032661;28;20017;-87
2022/08/26 06:41:52;;;;;;;4.45;3.08;;;24.10;22.60;;;;;;5032837;28;20033;-87
2022/08/26 06:44:19;;;;;;;7.03;3.03;;;24.20;37.30;;;;;;5032819;28;20084;-87
2022/08/26 06:46:44;;;;;;;6.15;3.47;;;24.10;41.60;;;;;;5032755;28;20034;-87
2022/08/26 06:49:11;;;;;;;5.18;3.45;;;24.20;20.60;;;;;;5032669;28;20036;-87
2022/08/26 06:51:38;;;;;;;3.30;3.00;;;24.20;24.20;;;;;;5032630;28;20064;-87
2022/08/26 06:54:05;;;;;;;6.25;3.55;;;24.30;28.20;;;;;;5031533;28;20379;-87
2022/08/26 06:56:38;;;;;;;4.70;3.45;;;24.30;28.90;;;;;;5032587;28;20482;-87
2022/08/26 06:59:04;;;;;;;5.75;3.30;;;24.20;28.10;;;;;;5032513;28;20037;-87
2022/08/26 07:01:33;;;;;;;7.60;3.33;;;24.30;26.00;;;;;;5032507;28;20538;-87
2022/08/26 07:04:02;;;;;;;7.03;3.50;;;24.20;30.20;;;;;;5032634;28;20524;-87
2022/08/26 07:06:28;;;;;;;5.32;3.70;;;24.30;28.70;;;;;;5032548;28;20018;-87
2022/08/26 07:09:01;;;;;;;5.22;3.50;;;24.30;23.80;;;;;;5032005;28;20025;-87
2022/08/26 07:11:27;;;;;;;5.45;3.40;;;24.20;23.40;;;;;;5032561;28;20026;-87
2022/08/26 07:13:53;;;;;;;6.75;3.75;;;24.30;20.50;;;;;;5032268;28;20490;-86
2022/08/26 07:16:18;;;;;;;4.93;3.70;;;24.40;16.60;;;;;;5032526;28;20123;-87
2022/08/26 07:18:45;;;;;;;6.03;3.13;;;24.50;29.10;;;;;;5032496;28;20558;-87
2022/08/26 07:21:14;;;;;;;6.22;3.40;;;24.60;16.80;;;;;;5032137;28;20367;-86
2022/08/26 07:23:40;;;;;;;7.80;3.25;;;24.50;26.10;;;;;;5032411;28;20470;-87
2022/08/26 07:26:08;;;;;;;4.78;3.50;;;24.80;29.00;;;;;;5032525;28;20025;-87
2022/08/26 07:28:34;;;;;;;5.78;3.58;;;24.90;29.00;;;;;;5044836;28;20406;-87
2022/08/26 07:31:05;;;;;;;4.28;3.60;;;25.00;22.50;;;;;;5034350;28;20033;-87
2022/08/26 07:33:31;;;;;;;6.93;3.78;;;25.10;29.50;;;;;;5052085;28;20039;-87
2022/08/26 07:35:56;;;;;;;6.55;3.50;;;25.30;25.40;;;;;;5051943;28;20033;-87
2022/08/26 07:38:22;;;;;;;4.03;3.35;;;25.30;24.80;;;;;;5052118;28;20025;-87
2022/08/26 07:40:48;;;;;;;5.13;3.58;;;25.50;26.30;;;;;;5052147;28;20031;-87
2022/08/26 07:43:13;;;;;;;4.82;3.53;;;25.50;32.70;;;;;;5052133;28;20116;-87
2022/08/26 07:45:39;;;;;;;5.57;3.60;;;25.60;24.50;;;;;;5051966;28;20021;-87
2022/08/26 07:48:05;;;;;;;7.30;3.88;;;25.70;24.70;;;;;;5052048;28;20033;-87
2022/08/26 07:50:31;;;;;;;4.55;3.60;;;25.80;24.80;;;;;;5051777;28;20447;-87
2022/08/26 07:52:57;;;;;;;6.60;3.90;;;25.80;35.70;;;;;;5034129;28;20473;-87
2022/08/26 07:55:23;;;;;;;5.60;3.75;;;26.10;28.70;;;;;;5051993;28;20044;-87
2022/08/26 07:57:49;;;;;;;4.60;3.45;;;26.20;31.90;;;;;;5051783;28;20025;-87
2022/08/26 08:00:16;;;;;;;5.47;3.60;;;26.20;24.00;;;;;;5052024;28;20036;-87
2022/08/26 08:02:43;;;;;;;3.80;3.50;;;26.20;28.20;;;;;;5051941;28;20033;-87
2022/08/26 08:05:14;;;;;;;7.28;3.92;;;26.20;24.20;;;;;;5054219;28;20013;-87
2022/08/26 08:07:39;;;;;;;11.25;4.20;;;26.10;16.30;;;;;;5055515;28;20033;-87
2022/08/26 08:10:07;;;;;;;5.80;4.05;;;26.30;20.40;;;;;;5055585;28;20025;-87
2022/08/26 08:12:33;;;;;;;5.93;3.97;;;26.50;18.60;;;;;;5055737;28;20108;-87
2022/08/26 08:14:58;;;;;;;7.18;4.10;;;26.70;21.70;;;;;;5055261;28;20111;-87
2022/08/26 08:17:24;;;;;;;7.30;3.88;;;26.80;23.40;;;;;;5055479;28;20021;-87
2022/08/26 08:19:50;;;;;;;6.68;3.78;;;26.70;20.60;;;;;;5055166;28;20029;-87
2022/08/26 08:22:16;;;;;;;7.30;4.53;;;26.70;25.50;;;;;;5055283;28;20104;-87
2022/08/26 08:24:42;;;;;;;5.90;3.80;;;26.80;23.60;;;;;;5055238;28;20076;-87
2022/08/26 08:27:08;;;;;;;4.15;3.65;;;26.70;26.60;;;;;;5055134;28;20028;-87
2022/08/26 08:29:35;;;;;;;4.40;3.85;;;26.90;25.90;;;;;;5055100;28;20569;-87
2022/08/26 08:32:02;;;;;;;6.45;3.85;;;26.80;28.70;;;;;;5055051;28;20029;-87
2022/08/26 08:34:28;;;;;;;4.20;3.80;;;26.60;26.90;;;;;;5054591;28;20037;-87
2022/08/26 08:36:54;;;;;;;10.32;3.65;;;26.80;37.50;;;;;;5055102;28;20050;-87
2022/08/26 08:39:20;;;;;;;6.50;3.80;;;26.80;31.20;;;;;;5054999;28;20021;-86
2022/08/26 08:41:55;;;;;;;6.88;4.15;;;27.10;29.10;;;;;;5055052;28;20033;-87
2022/08/26 08:44:23;;;;;;;4.20;3.80;;;26.90;30.00;;;;;;5037025;28;20371;-86
2022/08/26 08:47:04;;;;;;;7.95;4.25;;;27.10;31.40;;;;;;5054784;28;20382;-87
2022/08/26 08:49:32;;;;;;;4.30;3.90;;;27.60;33.90;;;;;;5054485;28;20025;-86
2022/08/26 08:52:05;;;;;;;8.02;4.03;;;27.90;32.20;;;;;;5054824;28;20021;-87
2022/08/26 08:54:31;;;;;;;6.22;4.25;;;28.10;34.90;;;;;;5054725;28;20037;-87
2022/08/26 08:57:14;;;;;;;6.93;4.13;;;28.60;30.90;;;;;;5054687;28;20508;-86
2022/08/26 08:59:54;;;;;;;5.82;4.10;;;28.90;35.30;;;;;;5054641;28;20135;-87
2022/08/26 09:02:33;;;;;;;6.78;3.65;;;29.00;33.60;;;;;;5054504;28;20393;-86
2022/08/26 09:05:19;;;;;;;5.75;3.53;;;29.40;45.60;;;;;;5054258;28;20025;-87
2022/08/26 09:08:03;;;;;;;6.22;3.97;;;30.00;34.00;;;;;;5054506;28;20033;-87
2022/08/26 09:10:48;;;;;;;7.90;3.50;;;30.10;36.90;;;;;;5054487;28;20040;-87
2022/08/26 09:13:16;;;;;;;4.28;3.38;;;30.60;36.10;;;;;;5054293;28;20108;-87
2022/08/26 09:15:54;;;;;;;5.70;3.70;;;30.50;34.30;;;;;;5015772;28;20029;-87
2022/08/26 09:18:35;;;;;;;6.10;3.70;;;30.40;35.40;;;;;;5033865;28;20391;-87
2022/08/26 09:21:04;;;;;;;4.50;3.60;;;30.30;30.70;;;;;;5034348;28;20033;-87
2022/08/26 09:23:32;;;;;;;3.72;3.42;;;30.00;29.50;;;;;;5034172;28;20101;-87
2022/08/26 09:26:41;;;;;;;4.65;3.28;;;29.40;27.50;;;;;;5034347;28;20022;-88
2022/08/26 09:29:29;;;;;;;4.93;3.38;;;29.30;23.80;;;;;;5038859;28;20387;-87
2022/08/26 09:32:23;;;;;;;5.07;3.40;;;28.90;23.00;;;;;;5053738;28;20131;-87
2022/08/26 09:34:54;;;;;;;5.30;3.30;;;28.80;22.30;;;;;;5053834;28;20036;-87
2022/08/26 09:37:47;;;;;;;5.43;3.80;;;28.80;19.10;;;;;;5053824;28;20504;-87
2022/08/26 09:40:34;;;;;;;4.57;3.35;;;28.30;22.30;;;;;;5049547;28;20389;-87
2022/08/26 09:43:06;;;;;;;4.70;3.75;;;28.10;21.80;;;;;;5053805;28;20078;-87
2022/08/26 09:45:32;;;;;;;5.20;3.33;;;28.30;18.20;;;;;;5053691;28;20100;-87
2022/08/26 09:47:59;;;;;;;7.43;3.67;;;28.50;14.10;;;;;;5053265;28;20429;-87
2022/08/26 09:50:31;;;;;;;5.80;3.38;;;28.60;17.90;;;;;;5053772;28;20546;-87
2022/08/26 09:53:14;;;;;;;4.32;2.85;;;28.70;15.60;;;;;;5053627;28;20036;-87
2022/08/26 09:55:42;;;;;;;4.55;3.13;;;28.90;21.10;;;;;;5053560;28;20036;-87
2022/08/26 09:58:30;;;;;;;3.75;3.20;;;28.80;22.60;;;;;;5053329;28;20067;-87
2022/08/26 10:01:00;;;;;;;4.03;3.00;;;28.70;18.10;;;;;;5053115;28;20036;-87
2022/08/26 10:03:32;;;;;;;4.82;2.95;;;28.70;17.30;;;;;;5053367;28;20025;-87
2022/08/26 10:06:00;;;;;;;5.05;3.08;;;28.80;20.10;;;;;;5053187;28;20033;-87
2022/08/26 10:08:30;;;;;;;5.47;2.97;;;28.70;19.80;;;;;;5053291;28;20021;-87
2022/08/26 10:11:00;;;;;;;3.13;2.90;;;29.00;19.60;;;;;;5053247;28;20032;-87
2022/08/26 10:13:36;;;;;;;4.15;3.20;;;29.30;17.40;;;;;;5053145;28;20021;-87
2022/08/26 10:16:16;;;;;;;3.63;3.10;;;29.10;20.80;;;;;;5052936;28;20105;-87
2022/08/26 10:18:49;;;;;;;4.80;2.90;;;29.20;19.30;;;;;;5053009;28;20382;-87
2022/08/26 10:21:22;;;;;;;5.05;3.15;;;29.60;25.00;;;;;;5053268;28;20147;-87
2022/08/26 10:23:51;;;;;;;3.45;3.08;;;30.00;23.80;;;;;;5053049;28;20025;-87
2022/08/26 10:26:31;;;;;;;2.95;2.63;;;30.70;23.00;;;;;;5053018;28;20031;-87
2022/08/26 10:29:09;;;;;;;4.80;3.10;;;30.80;24.50;;;;;;5052461;28;20587;-87
2022/08/26 10:31:41;;;;;;;5.25;2.90;;;30.60;23.20;;;;;;5052457;28;20021;-87
2022/08/26 10:34:09;;;;;;;3.13;2.70;;;30.20;15.90;;;;;;5034701;28;20037;-87
2022/08/26 10:36:49;;;;;;;4.25;2.50;;;29.80;16.60;;;;;;5052978;28;20108;-88
2022/08/26 10:39:38;;;;;;;3.08;2.78;;;29.90;19.00;;;;;;5052924;28;20553;-87
2022/08/26 10:42:12;;;;;;;3.40;3.10;;;30.30;17.90;;;;;;5042223;28;20055;-87
2022/08/26 10:44:43;;;;;;;6.65;2.72;;;30.60;16.30;;;;;;5052383;28;20040;-88
2022/08/26 10:47:15;;;;;;;4.78;2.60;;;30.40;20.00;;;;;;5052569;28;20490;-87
2022/08/26 10:49:43;;;;;;;3.70;3.13;;;30.30;17.10;;;;;;5052652;28;20044;-87
2022/08/26 10:52:33;;;;;;;4.47;2.78;;;30.20;19.80;;;;;;5052578;28;20150;-87
2022/08/26 10:55:25;;;;;;;5.55;3.10;;;31.00;20.00;;;;;;5052500;28;20477;-87
2022/08/26 10:58:22;;;;;;;4.55;3.08;;;30.70;20.80;;;;;;4971767;28;20500;-87
2022/08/26 11:04:01;;;;;;;3.30;3.10;;;30.30;21.70;;;;;;4971931;28;20130;-87
2022/08/26 11:06:29;;;;;;;4.93;3.25;;;30.90;19.30;;;;;;4971661;28;20042;-87
2022/08/26 11:09:00;;;;;;;6.28;2.90;;;30.80;18.00;;;;;;4971675;28;20039;-88
2022/08/26 11:11:40;;;;;;;4.78;3.22;;;29.80;18.00;;;;;;4971671;28;20022;-88
2022/08/26 11:14:07;;;;;;;6.03;3.20;;;29.70;15.90;;;;;;4971139;28;20047;-87
2022/08/26 11:16:32;;;;;;;4.35;3.20;;;29.70;14.90;;;;;;4971580;28;20038;-88
2022/08/26 11:18:58;;;;;;;4.70;3.33;;;29.50;14.00;;;;;;4971531;28;20037;-87
2022/08/26 11:22:01;;;;;;;3.38;3.03;;;29.90;15.60;;;;;;4971611;28;20035;-87
2022/08/26 11:24:59;;;;;;;4.88;3.15;;;29.90;12.00;;;;;;4971434;28;20031;-87
2022/08/26 11:27:25;;;;;;;4.97;3.30;;;30.20;16.20;;;;;;4968200;28;20093;-87
2022/08/26 11:30:07;;;;;;;5.13;3.10;;;30.10;14.40;;;;;;4935787;29;20023;-87
2022/08/26 11:32:33;;;;;;;7.07;3.10;;;31.20;16.30;;;;;;4936201;29;20031;-87
2022/08/26 11:35:11;;;;;;;4.13;3.10;;;31.40;14.20;;;;;;4989332;28;20049;-87
2022/08/26 11:37:44;;;;;;;3.60;3.30;;;33.20;19.20;;;;;;5032251;28;20021;-87
2022/08/26 11:40:16;;;;;;;6.43;3.45;;;32.90;18.10;;;;;;5034961;28;20030;-87
2022/08/26 11:42:56;;;;;;;4.85;2.80;;;38.20;17.20;;;;;;5035692;28;20029;-87
2022/08/26 11:45:38;;;;;;;4.70;3.13;;;39.30;19.10;;;;;;5036045;28;20048;-87
2022/08/26 11:48:21;;;;;;;3.20;2.90;;;40.00;21.50;;;;;;5036033;28;20433;-88
2022/08/26 11:51:08;;;;;;;3.65;2.72;;;40.30;20.50;;;;;;5036075;28;20079;-88
2022/08/26 11:53:43;;;;;;;3.08;2.75;;;42.60;21.90;;;;;;5035919;28;20478;-87
2022/08/26 11:56:36;;;;;;;3.65;2.55;;;44.50;18.90;;;;;;5035856;28;20502;-88
2022/08/26 11:59:08;;;;;;;3.97;2.75;;;43.30;14.90;;;;;;5035180;28;20076;-88
2022/08/26 12:01:38;;;;;;;4.38;2.72;;;44.60;20.50;;;;;;5015160;28;20052;-88
2022/08/26 12:04:07;;;;;;;3.50;2.50;;;45.30;16.20;;;;;;5035874;28;20100;-88
2022/08/26 12:06:40;;;;;;;2.95;2.55;;;44.60;13.80;;;;;;5035830;28;20061;-88
2022/08/26 12:09:18;;;;;;;3.38;2.58;;;43.70;17.90;;;;;;5035629;28;20029;-88
2022/08/26 12:11:44;;;;;;;4.40;2.88;;;43.30;23.30;;;;;;5035195;28;20052;-88
2022/08/26 12:14:20;;;;;;;3.20;2.67;;;44.10;19.70;;;;;;5035448;28;20490;-88
2022/08/26 12:16:46;;;;;;;3.55;2.70;;;42.70;20.10;;;;;;5035426;28;20037;-88
2022/08/26 12:19:25;;;;;;;2.90;2.70;;;43.10;18.30;;;;;;5035524;28;20026;-88
2022/08/26 12:22:01;;;;;;;4.88;2.65;;;43.30;18.70;;;;;;5035609;28;20494;-88
2022/08/26 12:24:27;;;;;;;3.72;2.80;;;43.40;8.00;;;;;;5035385;28;20168;-88
2022/08/26 12:27:23;;;;;;;4.63;2.95;;;42.70;1.10;;;;;;5034902;28;20022;-88
2022/08/26 12:30:21;;;;;;;3.40;2.90;;;43.40;9.40;;;;;;5020884;28;20548;-88
2022/08/26 12:33:01;;;;;;;3.40;3.08;;;43.70;7.90;;;;;;5054719;28;20045;-88
2022/08/26 12:35:27;;;;;;;2.95;2.65;;;43.50;8.00;;;;;;5055068;28;20490;-89
2022/08/26 12:37:54;;;;;;;6.22;3.00;;;43.50;3.10;;;;;;5055236;28;20025;-88
2022/08/26 12:40:34;;;;;;;4.40;2.60;;;44.40;6.70;;;;;;5055042;28;20021;-88
2022/08/26 12:43:03;;;;;;;3.63;2.80;;;44.30;7.30;;;;;;5055079;28;20500;-89
2022/08/26 12:45:34;;;;;;;5.43;3.00;;;44.90;8.00;;;;;;5054934;28;20063;-88
2022/08/26 12:48:06;;;;;;;3.58;3.13;;;41.00;2.80;;;;;;5054896;28;20029;-88
2022/08/26 12:50:34;;;;;;;4.47;2.97;;;41.60;6.70;;;;;;5054907;28;20068;-88
2022/08/26 12:53:09;;;;;;;3.35;2.53;;;42.50;6.00;;;;;;5055119;28;20033;-88
2022/08/26 12:55:37;;;;;;;2.83;2.50;;;41.90;6.50;;;;;;5054329;28;20040;-88
2022/08/26 12:58:27;;;;;;;3.58;2.80;;;41.60;5.90;;;;;;5054820;28;20025;-89
2022/08/26 13:01:07;;;;;;;3.22;2.92;;;41.90;5.60;;;;;;5054573;28;20025;-88
2022/08/26 13:03:33;;;;;;;3.28;2.60;;;42.10;7.30;;;;;;5054716;28;20067;-88
2022/08/26 13:06:21;;;;;;;3.33;2.80;;;43.70;7.10;;;;;;5054564;28;20029;-88
2022/08/26 13:08:50;;;;;;;4.82;2.53;;;44.00;9.70;;;;;;5054495;28;20021;-88
2022/08/26 13:11:18;;;;;;;2.80;2.50;;;45.50;5.30;;;;;;5053997;28;20040;-88